createdAt,value
2023-01-01T00:01:30.200Z,95317.41
2023-01-01T00:04:00.089Z,95318.25
2023-01-01T00:06:29.352Z,95317.41
2023-01-01T00:09:11.035Z,95325.41
2023-01-01T00:27:21.149Z,95331.00
2023-01-01T00:29:50.318Z,95331.84
2023-01-01T00:32:22.631Z,95332.69
2023-01-01T00:34:50.992Z,95331.84
2023-01-01T00:37:19.425Z,95337.28
2023-01-01T00:39:47.385Z,95331.22
2023-01-01T00:42:15.259Z,95329.41
2023-01-01T00:44:43.048Z,95331.06
2023-01-01T00:47:12.309Z,95339.84
2023-01-01T00:50:12.240Z,95336.88
2023-01-01T00:56:37.380Z,95347.28
2023-01-01T00:59:05.229Z,95352.91
2023-01-01T01:01:34.680Z,95347.72
2023-01-01T01:04:05.057Z,95351.50
2023-01-01T01:06:33.007Z,95353.13
2023-01-01T01:09:00.797Z,95362.78
2023-01-01T01:11:28.631Z,95360.28
2023-01-01T01:13:57.973Z,95363.81
2023-01-01T01:16:27.439Z,95360.94
2023-01-01T01:18:57.649Z,95361.63
2023-01-01T01:21:27.616Z,95367.81
2023-01-01T01:23:56.065Z,95360.91
2023-01-01T01:26:24.836Z,95362.16
2023-01-01T01:28:53.141Z,95353.19
2023-01-01T01:31:22.567Z,95362.56
2023-01-01T01:33:50.865Z,95358.78
2023-01-01T01:36:19.768Z,95362.13
2023-01-01T01:43:30.717Z,95365.47
2023-01-01T01:46:06.424Z,95357.78
2023-01-01T01:48:52.618Z,95366.34
2023-01-01T01:51:28.147Z,95359.28
2023-01-01T01:54:08.400Z,95363.03
2023-01-01T01:56:50.299Z,95355.94
2023-01-01T01:59:20.594Z,95355.13
2023-01-01T02:01:53.258Z,95368.44
2023-01-01T02:06:12.145Z,95354.28
2023-01-01T02:13:38.302Z,95345.13
2023-01-01T02:27:13.011Z,95335.44
2023-01-01T02:29:47.793Z,95332.78
2023-01-01T02:32:19.561Z,95344.91
2023-01-01T02:34:51.369Z,95338.31
2023-01-01T02:37:20.228Z,95338.34
2023-01-01T02:39:52.859Z,95342.31
2023-01-01T02:42:21.058Z,95335.84
2023-01-01T02:44:52.302Z,95335.03
2023-01-01T02:47:21.124Z,95331.69
2023-01-01T02:49:57.569Z,95322.34
2023-01-01T02:52:47.078Z,95331.28
2023-01-01T02:55:24.024Z,95325.88
2023-01-01T02:57:53.965Z,95327.16
2023-01-01T03:00:28.439Z,95316.41
2023-01-01T03:03:16.391Z,95315.16
2023-01-01T03:06:07.744Z,95332.22
2023-01-01T03:08:42.182Z,95326.63
2023-01-01T03:11:12.451Z,95340.16
2023-01-01T03:13:46.903Z,95344.34
2023-01-01T03:16:19.215Z,95339.38
2023-01-01T03:19:11.141Z,95342.31
2023-01-01T03:21:44.147Z,95345.66
2023-01-01T03:24:16.029Z,95351.50
2023-01-01T03:26:44.358Z,95351.50
2023-01-01T03:29:14.214Z,95358.56
2023-01-01T03:31:46.181Z,95369.38
2023-01-01T03:34:19.069Z,95370.00
2023-01-01T03:36:50.005Z,95372.09
2023-01-01T03:39:21.135Z,95369.59
2023-01-01T03:41:51.382Z,95372.50
2023-01-01T03:44:23.068Z,95363.78
2023-01-01T03:46:52.352Z,95362.75
2023-01-01T03:49:20.841Z,95366.47
2023-01-01T03:52:17.143Z,95370.47
2023-01-01T03:54:47.563Z,95370.00
2023-01-01T03:57:24.321Z,95376.06
2023-01-01T03:59:57.848Z,95374.19
2023-01-01T04:02:30.266Z,95369.38
2023-01-01T04:04:59.345Z,95374.59
2023-01-01T04:07:27.397Z,95367.75
2023-01-01T04:09:57.325Z,95368.97
2023-01-01T04:12:25.301Z,95375.00
2023-01-01T04:14:53.239Z,95380.22
2023-01-01T04:17:21.078Z,95376.47
2023-01-01T04:19:54.995Z,95367.75
2023-01-01T04:22:23.728Z,95364.59
2023-01-01T04:24:51.758Z,95366.47
2023-01-01T04:27:19.556Z,95369.19
2023-01-01T04:29:47.308Z,95373.56
2023-01-01T04:32:15.179Z,95369.59
2023-01-01T04:34:42.964Z,95365.25
2023-01-01T04:37:13.577Z,95371.47
2023-01-01T04:39:41.769Z,95376.88
2023-01-01T04:42:09.665Z,95376.88
2023-01-01T04:44:37.503Z,95381.25
2023-01-01T04:47:05.618Z,95383.13
2023-01-01T04:49:33.431Z,95383.31
2023-01-01T04:52:01.437Z,95387.31
2023-01-01T04:54:30.766Z,95386.91
2023-01-01T04:56:58.655Z,95384.41
2023-01-01T04:59:26.528Z,95394.34
2023-01-01T05:01:54.656Z,95407.06
2023-01-01T05:04:22.612Z,95406.25
2023-01-01T05:06:50.736Z,95405.63
2023-01-01T05:09:18.541Z,95401.03
2023-01-01T05:11:47.879Z,95407.47
2023-01-01T05:14:15.647Z,95406.03
2023-01-01T05:16:43.698Z,95411.25
2023-01-01T05:19:11.878Z,95411.44
2023-01-01T05:21:41.671Z,95403.13
2023-01-01T05:24:11.022Z,95406.25
2023-01-01T05:26:40.201Z,95420.59
2023-01-01T05:29:16.183Z,95422.66
2023-01-01T05:31:45.633Z,95430.16
2023-01-01T05:34:13.709Z,95417.22
2023-01-01T05:36:41.660Z,95417.22
2023-01-01T05:39:12.006Z,95425.31
2023-01-01T05:41:40.559Z,95425.13
2023-01-01T05:44:11.744Z,95423.84
2023-01-01T05:46:39.798Z,95437.78
2023-01-01T05:49:07.878Z,95435.06
2023-01-01T05:54:02.563Z,95450.25
2023-01-01T05:56:30.408Z,95445.06
2023-01-01T05:58:58.508Z,95439.66
2023-01-01T06:01:29.548Z,95451.28
2023-01-01T06:03:58.485Z,95446.13
2023-01-01T06:06:28.913Z,95450.47
2023-01-01T06:08:58.873Z,95457.56
2023-01-01T06:11:27.439Z,95451.53
2023-01-01T06:13:56.173Z,95453.59
2023-01-01T06:16:24.437Z,95447.16
2023-01-01T06:18:53.715Z,95446.53
2023-01-01T06:21:22.974Z,95464.59
2023-01-01T06:23:50.931Z,95458.59
2023-01-01T06:26:20.917Z,95461.69
2023-01-01T06:28:49.192Z,95455.66
2023-01-01T06:31:19.484Z,95456.69
2023-01-01T06:33:47.533Z,95465.25
2023-01-01T06:36:19.383Z,95466.25
2023-01-01T06:38:48.841Z,95464.56
2023-01-01T06:41:18.695Z,95470.41
2023-01-01T06:43:47.246Z,95479.34
2023-01-01T06:46:18.738Z,95477.88
2023-01-01T06:48:47.861Z,95489.53
2023-01-01T06:51:19.427Z,95489.31
2023-01-01T06:53:47.652Z,95486.34
2023-01-01T06:56:15.620Z,95488.03
2023-01-01T06:58:43.591Z,95491.16
2023-01-01T07:01:13.690Z,95492.00
2023-01-01T07:03:42.667Z,95493.66
2023-01-01T07:06:11.237Z,95488.06
2023-01-01T07:08:40.600Z,95495.34
2023-01-01T07:11:08.421Z,95487.66
2023-01-01T07:13:36.623Z,95501.00
2023-01-01T07:16:12.346Z,95489.56
2023-01-01T07:18:41.521Z,95497.47
2023-01-01T07:21:34.006Z,95496.22
2023-01-01T07:24:03.719Z,95502.63
2023-01-01T07:26:33.163Z,95504.09
2023-01-01T07:29:07.979Z,95505.78
2023-01-01T07:31:36.738Z,95498.69
2023-01-01T07:34:04.761Z,95508.88
2023-01-01T07:36:32.661Z,95509.91
2023-01-01T07:39:00.712Z,95512.81
2023-01-01T07:41:30.007Z,95516.16
2023-01-01T07:43:57.785Z,95520.34
2023-01-01T07:46:25.687Z,95517.84
2023-01-01T07:48:53.660Z,95509.53
2023-01-01T07:51:21.413Z,95515.41
2023-01-01T07:53:49.217Z,95518.53
2023-01-01T07:56:17.105Z,95523.13
2023-01-01T07:58:46.415Z,95529.56
2023-01-01T08:01:15.727Z,95521.47
2023-01-01T08:03:43.873Z,95530.03
2023-01-01T08:06:12.664Z,95519.22
2023-01-01T08:08:40.784Z,95526.91
2023-01-01T08:11:08.649Z,95531.91
2023-01-01T08:13:36.519Z,95530.88
2023-01-01T08:16:06.606Z,95537.50
2023-01-01T08:18:34.389Z,95528.34
2023-01-01T08:21:02.173Z,95528.75
2023-01-01T08:23:30.037Z,95527.06
2023-01-01T08:26:00.116Z,95524.97
2023-01-01T08:28:28.278Z,95534.13
2023-01-01T08:30:56.222Z,95536.59
2023-01-01T08:33:26.221Z,95531.31
2023-01-01T08:35:54.907Z,95527.34
2023-01-01T08:38:22.923Z,95532.28
2023-01-01T08:40:50.860Z,95530.22
2023-01-01T08:43:18.682Z,95531.84
2023-01-01T08:45:46.707Z,95531.78
2023-01-01T08:48:14.726Z,95523.78
2023-01-01T08:50:44.014Z,95541.25
2023-01-01T08:53:11.916Z,95546.44
2023-01-01T08:55:39.746Z,95555.13
2023-01-01T08:58:08.367Z,95546.06
2023-01-01T09:00:36.332Z,95548.06
2023-01-01T09:03:04.226Z,95547.97
2023-01-01T09:05:32.321Z,95552.84
2023-01-01T09:08:01.643Z,95555.06
2023-01-01T09:10:29.514Z,95559.31
2023-01-01T09:12:57.283Z,95563.78
2023-01-01T09:15:25.285Z,95568.47
2023-01-01T09:17:53.178Z,95565.63
2023-01-01T09:20:21.140Z,95575.31
2023-01-01T09:22:48.995Z,95573.34
2023-01-01T09:25:18.531Z,95574.41
2023-01-01T09:27:46.538Z,95574.88
2023-01-01T09:30:15.984Z,95572.88
2023-01-01T09:32:43.843Z,95576.22
2023-01-01T09:35:11.644Z,95574.72
2023-01-01T09:37:39.475Z,95579.84
2023-01-01T09:40:08.781Z,95570.69
2023-01-01T09:42:41.050Z,95577.19
2023-01-01T09:45:22.992Z,95575.25
2023-01-01T09:47:53.484Z,95587.03
2023-01-01T09:54:09.250Z,95569.28
2023-01-01T09:56:37.544Z,95563.16
2023-01-01T09:59:10.199Z,95566.63
2023-01-01T10:01:45.165Z,95551.00
2023-01-01T10:04:32.304Z,95550.44
2023-01-01T10:07:28.342Z,95542.59
2023-01-01T10:11:06.016Z,95554.88
2023-01-01T10:13:36.131Z,95555.94
2023-01-01T10:16:11.694Z,95541.97
2023-01-01T10:18:40.081Z,95541.94
2023-01-01T10:21:11.427Z,95539.16
2023-01-01T10:23:43.256Z,95531.50
2023-01-01T10:26:14.581Z,95545.94
2023-01-01T10:28:48.536Z,95535.53
2023-01-01T10:31:20.270Z,95542.00
2023-01-01T10:33:48.665Z,95529.94
2023-01-01T10:36:18.379Z,95531.28
2023-01-01T10:38:46.596Z,95541.66
2023-01-01T10:41:19.530Z,95539.91
2023-01-01T10:43:48.199Z,95546.47
2023-01-01T10:46:20.276Z,95534.09
2023-01-01T10:49:06.916Z,95534.41
2023-01-01T10:51:36.830Z,95533.50
2023-01-01T10:54:04.912Z,95526.84
2023-01-01T10:56:41.346Z,95527.53
2023-01-01T10:59:34.656Z,95526.81
2023-01-01T11:02:23.001Z,95515.41
2023-01-01T11:04:52.562Z,95522.41
2023-01-01T11:07:29.067Z,95523.28
2023-01-01T11:10:04.030Z,95528.56
2023-01-01T11:15:25.306Z,95518.44
2023-01-01T11:18:06.826Z,95523.34
2023-01-01T11:20:35.255Z,95514.03
2023-01-01T11:23:20.264Z,95508.97
2023-01-01T11:26:02.848Z,95503.53
2023-01-01T11:28:53.140Z,95494.50
2023-01-01T11:31:34.357Z,95489.44
2023-01-01T11:34:08.015Z,95492.34
2023-01-01T11:36:36.359Z,95484.25
2023-01-01T11:39:23.111Z,95482.47
2023-01-01T11:41:52.770Z,95472.97
2023-01-01T11:44:28.428Z,95474.72
2023-01-01T11:46:56.210Z,95469.31
2023-01-01T11:49:27.958Z,95474.09
2023-01-01T11:51:55.725Z,95459.13
2023-01-01T11:54:32.803Z,95455.56
2023-01-01T11:57:05.446Z,95457.28
2023-01-01T11:59:42.165Z,95455.94
2023-01-01T12:02:14.155Z,95455.94
2023-01-01T12:04:46.834Z,95453.47
2023-01-01T12:07:17.995Z,95447.41
2023-01-01T12:09:51.025Z,95443.28
2023-01-01T12:12:23.467Z,95450.44
2023-01-01T12:14:54.842Z,95438.63
2023-01-01T12:17:25.329Z,95442.22
2023-01-01T12:19:59.742Z,95434.25
2023-01-01T12:22:28.230Z,95437.00
2023-01-01T12:24:56.247Z,95430.69
2023-01-01T12:27:35.443Z,95426.59
2023-01-01T12:30:12.432Z,95435.09
2023-01-01T12:33:09.081Z,95438.41
2023-01-01T12:35:52.507Z,95433.19
2023-01-01T12:38:35.486Z,95433.50
2023-01-01T12:41:09.382Z,95429.34
2023-01-01T12:43:44.284Z,95429.63
2023-01-01T12:46:29.416Z,95431.28
2023-01-01T12:49:14.721Z,95421.38
2023-01-01T12:51:49.270Z,95427.38
2023-01-01T12:54:44.141Z,95416.94
2023-01-01T12:57:15.926Z,95427.94
2023-01-01T12:59:46.961Z,95421.06
2023-01-01T13:02:18.281Z,95421.06
2023-01-01T13:04:46.556Z,95415.53
2023-01-01T13:07:16.082Z,95413.84
2023-01-01T13:09:48.319Z,95408.06
2023-01-01T13:12:18.900Z,95416.88
2023-01-01T13:14:49.538Z,95407.00
2023-01-01T13:17:20.300Z,95406.19
2023-01-01T13:19:49.920Z,95407.84
2023-01-01T13:22:42.291Z,95412.84
2023-01-01T13:25:22.404Z,95408.16
2023-01-01T13:28:12.176Z,95407.06
2023-01-01T13:30:54.736Z,95415.31
2023-01-01T13:33:29.587Z,95418.34
2023-01-01T13:36:31.601Z,95418.06
2023-01-01T13:39:01.831Z,95414.25
2023-01-01T13:41:36.805Z,95417.81
2023-01-01T13:44:19.101Z,95419.75
2023-01-01T13:46:53.249Z,95413.66
2023-01-01T13:49:26.297Z,95413.66
2023-01-01T13:52:20.989Z,95413.41
2023-01-01T13:55:06.165Z,95411.75
2023-01-01T13:57:50.539Z,95417.25
2023-01-01T14:00:22.317Z,95409.28
2023-01-01T14:52:40.700Z,95419.38
2023-01-01T14:55:09.422Z,95424.47
2023-01-01T14:57:38.410Z,95422.38
2023-01-01T15:00:16.106Z,95427.47
2023-01-01T15:02:43.829Z,95437.94
2023-01-01T15:05:34.701Z,95437.56
2023-01-01T15:08:06.172Z,95435.09
2023-01-01T15:10:36.166Z,95437.69
2023-01-01T15:13:07.253Z,95436.88
2023-01-01T15:15:40.944Z,95440.47
2023-01-01T15:18:41.886Z,95432.72
2023-01-01T15:21:14.920Z,95429.72
2023-01-01T15:23:54.082Z,95433.63
2023-01-01T15:26:51.460Z,95431.44
2023-01-01T15:29:25.563Z,95427.03
2023-01-01T15:31:57.178Z,95428.50
2023-01-01T15:34:27.699Z,95421.66
2023-01-01T15:36:56.950Z,95423.00
2023-01-01T15:39:33.774Z,95428.22
2023-01-01T15:42:01.438Z,95430.41
2023-01-01T15:44:30.908Z,95420.72
2023-01-01T15:47:06.717Z,95433.94
2023-01-01T15:49:34.655Z,95425.25
2023-01-01T15:52:05.473Z,95428.25
2023-01-01T15:54:37.442Z,95427.03
2023-01-01T15:57:05.177Z,95427.78
2023-01-01T15:59:34.913Z,95422.03
2023-01-01T16:02:11.905Z,95430.50
2023-01-01T16:04:40.167Z,95427.59
2023-01-01T16:07:16.325Z,95422.59
2023-01-01T16:09:45.446Z,95415.19
2023-01-01T16:12:13.058Z,95422.28
2023-01-01T16:14:40.683Z,95421.63
2023-01-01T16:17:13.846Z,95408.69
2023-01-01T16:19:41.751Z,95407.22
2023-01-01T16:22:13.702Z,95410.91
2023-01-01T16:24:41.449Z,95419.75
2023-01-01T16:27:10.604Z,95420.16
2023-01-01T16:29:40.295Z,95411.03
2023-01-01T16:32:16.817Z,95417.31
2023-01-01T16:34:44.451Z,95416.63
2023-01-01T16:37:12.053Z,95425.06
2023-01-01T16:39:39.702Z,95416.63
2023-01-01T16:42:09.454Z,95408.22
2023-01-01T16:44:41.815Z,95415.81
2023-01-01T16:47:09.599Z,95413.81
2023-01-01T16:49:37.262Z,95410.28
2023-01-01T16:52:05.052Z,95406.16
2023-01-01T16:54:32.698Z,95409.97
2023-01-01T16:57:00.303Z,95403.72
2023-01-01T16:59:27.884Z,95411.50
2023-01-01T17:01:57.080Z,95408.06
2023-01-01T17:04:24.983Z,95404.63
2023-01-01T17:06:52.615Z,95397.63
2023-01-01T17:09:20.331Z,95400.59
2023-01-01T17:11:47.989Z,95398.00
2023-01-01T17:14:15.673Z,95394.22
2023-01-01T17:16:43.328Z,95397.31
2023-01-01T17:19:15.125Z,95397.69
2023-01-01T17:21:44.712Z,95401.50
2023-01-01T17:24:12.570Z,95395.78
2023-01-01T17:26:40.262Z,95397.56
2023-01-01T17:29:07.942Z,95401.72
2023-01-01T17:31:36.095Z,95402.53
2023-01-01T17:34:04.177Z,95398.53
2023-01-01T17:36:34.397Z,95391.97
2023-01-01T17:39:05.098Z,95385.00
2023-01-01T17:41:35.877Z,95385.13
2023-01-01T17:44:05.216Z,95385.47
2023-01-01T17:46:33.933Z,95387.63
2023-01-01T17:49:03.167Z,95386.66
2023-01-01T17:51:32.791Z,95387.00
2023-01-01T17:54:03.365Z,95374.69
2023-01-01T17:56:31.019Z,95375.75
2023-01-01T17:58:58.804Z,95382.41
2023-01-01T18:01:30.847Z,95375.19
2023-01-01T18:03:59.795Z,95367.72
2023-01-01T18:06:28.697Z,95375.53
2023-01-01T18:08:57.002Z,95382.78
2023-01-01T18:11:28.712Z,95381.13
2023-01-01T18:13:56.731Z,95375.81
2023-01-01T18:16:24.810Z,95384.19
2023-01-01T18:18:53.165Z,95381.00
2023-01-01T18:21:23.743Z,95384.28
2023-01-01T18:23:52.946Z,95380.81
2023-01-01T18:26:21.131Z,95379.13
2023-01-01T18:28:53.515Z,95376.75
2023-01-01T18:31:21.738Z,95373.75
2023-01-01T18:33:50.258Z,95372.09
2023-01-01T18:36:20.652Z,95366.53
2023-01-01T18:38:57.509Z,95372.28
2023-01-01T18:41:58.263Z,95369.44
2023-01-01T18:44:30.826Z,95356.28
2023-01-01T18:47:02.405Z,95361.38
2023-01-01T18:49:30.917Z,95361.59
2023-01-01T18:52:02.867Z,95361.19
2023-01-01T18:54:59.991Z,95362.22
2023-01-01T21:05:13.013Z,95329.59
2023-01-01T21:07:40.775Z,95323.56
2023-01-01T21:10:09.631Z,95334.75
2023-01-01T21:12:37.672Z,95330.63
2023-01-01T21:15:13.145Z,95311.25
2023-01-01T21:17:41.009Z,95317.13
2023-01-01T21:20:10.275Z,95321.59
2023-01-01T21:22:38.101Z,95319.31
2023-01-01T21:25:49.297Z,95312.63
2023-01-01T21:28:02.919Z,95316.63
2023-01-01T21:30:32.201Z,95317.91
2023-01-01T21:33:00.170Z,95312.72
2023-01-01T21:35:33.157Z,95304.19
2023-01-01T21:38:01.718Z,95309.22
2023-01-01T21:40:36.324Z,95312.78
2023-01-01T21:43:29.981Z,95307.22
2023-01-01T21:46:04.008Z,95296.84
2023-01-01T21:48:33.656Z,95311.09
2023-01-01T21:51:01.961Z,95290.47
2023-01-01T21:53:31.200Z,95277.53
2023-01-01T21:55:58.922Z,95302.13
2023-01-01T21:58:45.567Z,95319.75
2023-01-01T22:01:25.910Z,95297.31
2023-01-01T22:03:59.860Z,95289.81
2023-01-01T22:06:34.502Z,95292.31
2023-01-01T22:09:02.502Z,95306.03
2023-01-01T22:11:30.842Z,95306.25
2023-01-01T22:13:58.422Z,95301.84
2023-01-01T22:16:30.310Z,95296.44
2023-01-01T22:18:59.080Z,95293.31
2023-01-01T22:21:29.821Z,95299.34
2023-01-01T22:24:01.583Z,95308.16
2023-01-01T22:26:35.390Z,95305.66
2023-01-01T22:29:08.350Z,95309.81
2023-01-01T22:31:48.938Z,95310.22
2023-01-01T22:34:22.174Z,95306.53
2023-01-01T22:36:55.718Z,95315.25
2023-01-01T22:39:28.824Z,95304.44
2023-01-01T22:41:58.020Z,95312.16
